createdAt,value
2023-04-25T00:00:02.397Z,100086.34
2023-04-25T00:03:00.992Z,100080.53
2023-04-25T00:05:31.278Z,100087.56
2023-04-25T00:08:00.194Z,100087.56
2023-04-25T00:10:29.166Z,100099.19
2023-04-25T00:12:58.942Z,100090.91
2023-04-25T00:15:27.621Z,100084.41
2023-04-25T00:17:56.002Z,100076.41
2023-04-25T00:20:26.031Z,100072.22
2023-04-25T00:22:54.590Z,100081.75
2023-04-25T00:25:23.546Z,100082.22
2023-04-25T00:27:51.909Z,100079.22
2023-04-25T00:30:20.728Z,100070.53
2023-04-25T00:32:50.323Z,100066.84
2023-04-25T00:35:19.247Z,100068.84
2023-04-25T00:37:47.770Z,100069.13
2023-04-25T00:40:16.515Z,100061.66
2023-04-25T00:42:44.959Z,100057.31
2023-04-25T00:45:16.108Z,100057.44
2023-04-25T00:47:44.880Z,100051.81
2023-04-25T00:50:14.014Z,100043.81
2023-04-25T00:52:45.174Z,100040.94
2023-04-25T00:55:14.176Z,100039.78
2023-04-25T00:57:42.704Z,100042.47
2023-04-25T01:00:12.295Z,100037.13
2023-04-25T01:02:41.338Z,100040.47
2023-04-25T01:05:10.504Z,100048.09
2023-04-25T01:07:39.245Z,100034.16
2023-04-25T01:10:09.017Z,100044.13
2023-04-25T01:12:37.415Z,100042.47
2023-04-25T01:15:06.905Z,100030.44
2023-04-25T01:17:36.420Z,100034.59
2023-04-25T01:20:06.468Z,100028.97
2023-04-25T01:22:35.008Z,100026.06
2023-04-25T01:25:04.370Z,100027.75
2023-04-25T01:27:33.779Z,100029.75
2023-04-25T01:30:04.692Z,100025.78
2023-04-25T01:32:39.682Z,100024.09
2023-04-25T01:35:12.678Z,100027.63
2023-04-25T01:37:44.804Z,100028.75
2023-04-25T01:40:14.854Z,100026.47
2023-04-25T01:42:44.443Z,100033.44
2023-04-25T01:45:13.987Z,100032.31
2023-04-25T01:47:44.339Z,100029.94
2023-04-25T01:50:13.268Z,100031.13
2023-04-25T01:52:41.914Z,100022.78
2023-04-25T01:55:12.511Z,100027.28
2023-04-25T01:57:47.225Z,100022.78
2023-04-25T02:00:17.376Z,100027.81
2023-04-25T02:02:46.013Z,100015.78
2023-04-25T02:05:37.873Z,100016.63
2023-04-25T02:08:09.794Z,100009.78
2023-04-25T02:10:38.818Z,99999.59
2023-04-25T02:13:15.670Z,100001.94
2023-04-25T02:16:07.685Z,99992.78
2023-04-25T02:18:38.477Z,99987.78
2023-04-25T02:21:09.131Z,99983.59
2023-04-25T02:23:38.043Z,99978.94
2023-04-25T02:26:07.710Z,99976.97
2023-04-25T02:28:36.236Z,99963.63
2023-04-25T02:31:07.192Z,99982.09
2023-04-25T02:33:35.760Z,99983.78
2023-04-25T02:36:04.941Z,99996.13
2023-04-25T02:38:33.290Z,99996.84
2023-04-25T02:41:02.054Z,99992.47
2023-04-25T02:43:30.935Z,99980.81
2023-04-25T02:45:59.695Z,99964.13
2023-04-25T02:48:28.099Z,99949.75
2023-04-25T02:50:56.868Z,99945.41
2023-04-25T02:53:25.555Z,99937.91
2023-04-25T02:55:59.688Z,99938.28
2023-04-25T02:58:28.262Z,99940.22
2023-04-25T03:00:57.102Z,99947.25
2023-04-25T03:03:25.987Z,99945.75
2023-04-25T03:05:54.845Z,99942.06
2023-04-25T03:08:30.806Z,99938.41
2023-04-25T03:11:00.057Z,99943.22
2023-04-25T03:13:30.598Z,99947.25
2023-04-25T03:15:59.989Z,99945.56
2023-04-25T03:18:28.585Z,99952.44
2023-04-25T03:20:57.686Z,99966.59
2023-04-25T03:23:26.272Z,99976.28
2023-04-25T03:25:54.970Z,99984.97
2023-04-25T03:28:23.770Z,99981.44
2023-04-25T03:30:53.529Z,99969.09
2023-04-25T03:33:22.134Z,99972.06
2023-04-25T03:35:54.269Z,99978.41
2023-04-25T03:38:22.942Z,99973.09
2023-04-25T03:40:52.767Z,99966.38
2023-04-25T03:43:41.431Z,99971.72
2023-04-25T03:46:14.370Z,99966.69
2023-04-25T03:48:44.631Z,99968.69
2023-04-25T03:51:19.070Z,99967.53
2023-04-25T03:53:47.444Z,99961.84
2023-04-25T03:56:22.296Z,99960.69
2023-04-25T03:58:58.489Z,99960.69
2023-04-25T04:01:29.027Z,99970.28
2023-04-25T04:03:57.809Z,99971.81
2023-04-25T04:06:28.640Z,99972.41
2023-04-25T04:09:05.600Z,99969.06
2023-04-25T04:11:39.648Z,99972.25
2023-04-25T04:14:08.630Z,99974.25
2023-04-25T04:16:40.552Z,99979.28
2023-04-25T04:19:08.954Z,99979.28
2023-04-25T04:21:38.698Z,99975.25
2023-04-25T04:24:07.947Z,99976.25
2023-04-25T04:26:49.588Z,99978.28
2023-04-25T04:29:39.127Z,99977.31
2023-04-25T04:32:16.227Z,99965.63
2023-04-25T04:34:44.827Z,99960.25
2023-04-25T04:37:17.141Z,99954.38
2023-04-25T04:39:45.515Z,99960.97
2023-04-25T04:42:37.419Z,99958.47
2023-04-25T04:45:26.550Z,99971.91
2023-04-25T04:48:15.453Z,99974.25
2023-04-25T04:50:57.787Z,99985.25
2023-04-25T04:53:45.014Z,99994.75
2023-04-25T04:56:16.865Z,99998.09
2023-04-25T04:59:03.980Z,100020.09
2023-04-25T05:01:58.979Z,100053.09
2023-04-25T05:04:39.771Z,100070.19
2023-04-25T05:07:31.897Z,100090.16
2023-04-25T05:10:03.662Z,100106.16
2023-04-25T05:12:46.296Z,100143.84
2023-04-25T05:15:15.575Z,100173.47
2023-04-25T05:17:57.346Z,100161.56
2023-04-25T05:20:32.955Z,100135.59
2023-04-25T05:23:20.233Z,100136.84
2023-04-25T05:25:59.058Z,100145.16
2023-04-25T05:28:48.520Z,100140.25
2023-04-25T05:31:46.629Z,100152.69
2023-04-25T05:34:18.654Z,100138.06
2023-04-25T05:36:59.215Z,100127.94
2023-04-25T05:39:28.319Z,100132.25
2023-04-25T05:42:29.027Z,100127.66
2023-04-25T05:45:16.666Z,100102.66
2023-04-25T05:48:11.444Z,100078.81
2023-04-25T05:51:06.592Z,100092.00
2023-04-25T05:54:01.060Z,100098.31
2023-04-25T05:56:29.987Z,100101.00
2023-04-25T05:58:58.524Z,100099.00
2023-04-25T06:01:28.026Z,100094.38
2023-04-25T06:03:56.898Z,100083.69
2023-04-25T06:06:28.164Z,100088.03
2023-04-25T06:08:56.805Z,100098.69
2023-04-25T06:11:26.130Z,100099.50
2023-04-25T06:13:55.479Z,100094.03
2023-04-25T06:16:26.003Z,100093.34
2023-04-25T06:18:54.685Z,100100.38
2023-04-25T06:21:23.442Z,100104.00
2023-04-25T06:23:53.435Z,100100.53
2023-04-25T06:26:26.395Z,100100.19
2023-04-25T06:28:54.772Z,100100.19
2023-04-25T06:31:23.499Z,100089.53
2023-04-25T06:33:55.897Z,100088.72
2023-04-25T06:36:29.117Z,100086.88
2023-04-25T06:39:04.233Z,100082.41
2023-04-25T06:41:32.994Z,100075.38
2023-04-25T06:44:04.433Z,100083.38
2023-04-25T06:46:42.035Z,100076.06
2023-04-25T06:49:10.695Z,100070.03
2023-04-25T06:51:39.580Z,100065.03
2023-04-25T06:54:08.180Z,100056.19
2023-04-25T06:56:52.815Z,100044.38
2023-04-25T06:59:21.283Z,100038.19
2023-04-25T07:01:51.173Z,100037.22
2023-04-25T07:04:23.793Z,100042.56
2023-04-25T07:06:57.959Z,100051.69
2023-04-25T07:09:35.249Z,100050.69
2023-04-25T07:12:04.610Z,100037.69
2023-04-25T07:14:33.308Z,100040.66
2023-04-25T07:17:03.072Z,100056.94
2023-04-25T07:19:34.531Z,100067.09
2023-04-25T07:22:05.056Z,100053.91
2023-04-25T07:24:35.201Z,100050.78
2023-04-25T07:27:04.650Z,100042.94
2023-04-25T07:29:39.340Z,100030.59
2023-04-25T07:32:08.908Z,100038.28
2023-04-25T07:34:38.741Z,100042.25
2023-04-25T07:37:07.843Z,100049.13
2023-04-25T07:39:49.655Z,100041.41
2023-04-25T07:42:18.381Z,100034.63
2023-04-25T07:44:47.118Z,100046.28
2023-04-25T07:47:17.753Z,100032.28
2023-04-25T07:49:46.934Z,100025.28
2023-04-25T07:52:16.946Z,100007.59
2023-04-25T07:54:51.478Z,99993.28
2023-04-25T07:57:26.393Z,99995.28
2023-04-25T07:59:57.451Z,100006.22
2023-04-25T08:02:29.712Z,100017.91
2023-04-25T08:04:59.125Z,100029.00
2023-04-25T08:07:28.032Z,100027.88
2023-04-25T08:10:00.309Z,100033.22
2023-04-25T08:12:33.797Z,100018.88
2023-04-25T08:15:04.793Z,100022.22
2023-04-25T08:17:37.440Z,100035.41
2023-04-25T08:20:07.608Z,100026.94
2023-04-25T08:22:36.703Z,100034.94
2023-04-25T08:25:25.675Z,100046.28
2023-04-25T08:27:54.041Z,100053.78
2023-04-25T08:30:24.668Z,100066.78
2023-04-25T08:32:53.463Z,100079.97
2023-04-25T08:35:42.452Z,100075.44
2023-04-25T08:38:12.866Z,100082.63
2023-04-25T08:40:41.957Z,100075.31
2023-04-25T08:43:16.114Z,100086.44
2023-04-25T08:45:45.129Z,100082.63
2023-04-25T08:48:20.478Z,100084.47
2023-04-25T08:50:54.489Z,100088.94
2023-04-25T08:53:31.599Z,100091.44
2023-04-25T08:56:02.984Z,100082.63
2023-04-25T08:58:36.522Z,100085.00
2023-04-25T09:01:05.513Z,100078.81
2023-04-25T09:03:40.772Z,100085.28
2023-04-25T09:06:11.775Z,100087.97
2023-04-25T09:08:41.767Z,100078.13
2023-04-25T09:11:11.360Z,100081.78
2023-04-25T09:13:40.095Z,100086.81
2023-04-25T09:16:26.062Z,100079.97
2023-04-25T09:19:39.626Z,100082.47
2023-04-25T09:22:19.474Z,100092.13
2023-04-25T09:24:50.056Z,100090.63
2023-04-25T09:27:26.366Z,100096.50
2023-04-25T09:30:04.846Z,100082.47
2023-04-25T09:33:13.966Z,100082.47
2023-04-25T09:35:54.025Z,100094.81
2023-04-25T09:38:47.884Z,100087.66
2023-04-25T09:41:31.541Z,100097.47
2023-04-25T09:44:04.772Z,100098.47
2023-04-25T09:46:37.878Z,100094.66
2023-04-25T09:49:10.527Z,100095.19
2023-04-25T09:51:59.962Z,100092.81
2023-04-25T09:54:34.221Z,100099.16
2023-04-25T09:57:18.777Z,100098.47
2023-04-25T09:59:50.198Z,100101.00
2023-04-25T10:02:24.366Z,100097.31
2023-04-25T10:04:57.060Z,100094.81
2023-04-25T10:07:32.594Z,100099.00
2023-04-25T10:10:04.836Z,100100.66
2023-04-25T10:12:35.274Z,100099.00
2023-04-25T10:15:05.404Z,100093.69
2023-04-25T10:17:34.231Z,100095.66
2023-04-25T10:20:11.184Z,100092.00
2023-04-25T10:22:49.334Z,100098.00
2023-04-25T10:25:18.107Z,100100.81
2023-04-25T10:27:46.615Z,100101.50
2023-04-25T10:30:17.030Z,100094.38
2023-04-25T10:32:51.056Z,100093.22
2023-04-25T10:35:28.531Z,100093.50
2023-04-25T10:38:07.266Z,100094.50
2023-04-25T10:40:36.153Z,100093.22
2023-04-25T10:43:41.107Z,100107.50
2023-04-25T10:46:32.440Z,100104.84
2023-04-25T10:49:02.706Z,100108.53
2023-04-25T10:51:51.485Z,100106.00
2023-04-25T10:54:23.926Z,100105.72
2023-04-25T10:56:52.871Z,100116.53
2023-04-25T10:59:22.590Z,100108.19
2023-04-25T11:01:56.176Z,100108.53
2023-04-25T11:04:37.685Z,100114.69
2023-04-25T11:07:36.624Z,100116.38
2023-04-25T11:10:07.160Z,100110.50
2023-04-25T11:12:35.843Z,100113.03
2023-04-25T11:15:08.593Z,100109.50
2023-04-25T11:17:37.213Z,100117.34
2023-04-25T11:20:09.738Z,100102.50
2023-04-25T11:22:41.990Z,100106.00
2023-04-25T11:25:11.828Z,100092.66
2023-04-25T11:28:02.525Z,100096.16
2023-04-25T11:30:32.150Z,100108.66
2023-04-25T11:33:01.073Z,100100.53
2023-04-25T11:35:29.528Z,100109.34
2023-04-25T11:37:58.605Z,100112.00
2023-04-25T11:40:27.165Z,100098.69
2023-04-25T11:42:55.887Z,100112.69
2023-04-25T11:45:24.833Z,100100.66
2023-04-25T11:47:53.586Z,100097.03
2023-04-25T11:50:22.058Z,100104.16
2023-04-25T11:52:51.527Z,100105.16
2023-04-25T11:55:21.319Z,100104.84
2023-04-25T11:57:54.065Z,100111.03
2023-04-25T12:00:23.774Z,100096.84
2023-04-25T12:02:56.920Z,100106.69
2023-04-25T12:05:32.729Z,100110.19
2023-04-25T12:08:15.851Z,100094.50
2023-04-25T12:10:46.611Z,100093.34
2023-04-25T12:13:25.945Z,100097.03
2023-04-25T12:15:57.189Z,100099.50
2023-04-25T12:18:29.186Z,100097.03
2023-04-25T12:20:59.349Z,100096.16
2023-04-25T12:23:29.463Z,100084.69
2023-04-25T12:25:59.059Z,100098.00
2023-04-25T12:28:33.026Z,100099.84
2023-04-25T12:31:06.048Z,100103.34
2023-04-25T12:33:39.175Z,100113.84
2023-04-25T12:36:12.345Z,100115.00
2023-04-25T12:38:44.487Z,100119.31
2023-04-25T12:41:12.864Z,100124.66
2023-04-25T12:43:41.628Z,100133.81
2023-04-25T12:46:09.983Z,100134.09
2023-04-25T12:48:39.502Z,100144.53
2023-04-25T12:51:07.884Z,100144.28
2023-04-25T12:53:38.928Z,100142.09
2023-04-25T12:56:08.488Z,100139.41
2023-04-25T12:58:37.661Z,100147.28
2023-04-25T13:01:06.602Z,100153.97
2023-04-25T13:03:36.218Z,100163.34
2023-04-25T13:06:05.168Z,100173.47
2023-04-25T13:08:34.265Z,100192.00
2023-04-25T13:11:02.888Z,100188.56
2023-04-25T13:13:32.869Z,100194.31
2023-04-25T13:16:05.129Z,100197.44
2023-04-25T13:18:34.471Z,100199.56
2023-04-25T13:21:02.913Z,100204.22
2023-04-25T13:23:32.011Z,100203.81
2023-04-25T13:26:02.654Z,100200.78
2023-04-25T13:28:31.831Z,100206.78
2023-04-25T13:31:00.646Z,100207.75
2023-04-25T13:33:30.083Z,100207.94
2023-04-25T13:35:58.660Z,100216.34
2023-04-25T13:38:27.497Z,100201.22
2023-04-25T13:40:56.736Z,100199.53
2023-04-25T13:43:26.064Z,100188.31
2023-04-25T13:45:54.448Z,100187.22
2023-04-25T13:48:24.104Z,100185.81
2023-04-25T13:50:52.473Z,100198.44
2023-04-25T13:53:22.317Z,100205.47
2023-04-25T13:55:51.441Z,100211.22
2023-04-25T13:58:21.531Z,100221.72
2023-04-25T14:00:50.094Z,100227.34
2023-04-25T14:03:18.885Z,100218.66
2023-04-25T14:05:47.336Z,100225.41
2023-04-25T14:08:16.097Z,100227.38
2023-04-25T14:10:44.412Z,100224.84
2023-04-25T14:13:13.356Z,100224.69
2023-04-25T14:15:42.107Z,100235.47
2023-04-25T14:18:13.444Z,100237.00
2023-04-25T14:20:42.320Z,100247.78
2023-04-25T14:23:15.249Z,100254.09
2023-04-25T14:25:51.270Z,100258.72
2023-04-25T14:28:20.156Z,100260.69
2023-04-25T14:30:48.545Z,100253.78
2023-04-25T14:33:17.232Z,100230.38
2023-04-25T14:35:45.818Z,100220.59
2023-04-25T14:38:15.444Z,100191.16
2023-04-25T14:40:43.921Z,100186.13
2023-04-25T14:43:12.578Z,100193.09
2023-04-25T14:45:41.067Z,100189.44
2023-04-25T14:48:09.930Z,100174.50
2023-04-25T14:50:38.360Z,100181.94
2023-04-25T14:53:07.067Z,100176.44
2023-04-25T14:55:36.410Z,100178.28
2023-04-25T14:58:05.180Z,100186.81
2023-04-25T15:00:34.338Z,100181.22
2023-04-25T15:03:03.413Z,100182.03
2023-04-25T15:05:32.051Z,100183.13
2023-04-25T15:08:01.543Z,100182.22
2023-04-25T15:10:30.160Z,100182.09
2023-04-25T15:12:59.304Z,100192.28
2023-04-25T15:15:27.934Z,100186.41
2023-04-25T15:17:59.503Z,100191.44
2023-04-25T15:20:28.807Z,100193.28
2023-04-25T15:22:58.171Z,100196.75
2023-04-25T15:25:26.610Z,100194.78
2023-04-25T15:27:56.080Z,100207.69
2023-04-25T15:30:26.466Z,100206.41
2023-04-25T15:32:56.443Z,100207.91
2023-04-25T15:35:25.344Z,100213.25
2023-04-25T15:37:54.092Z,100214.28
2023-04-25T15:40:22.662Z,100214.16
2023-04-25T15:42:52.296Z,100207.00
2023-04-25T15:45:24.575Z,100211.44
2023-04-25T15:47:55.576Z,100213.44
2023-04-25T15:50:24.729Z,100211.75
2023-04-25T15:52:53.682Z,100214.16
2023-04-25T15:55:22.977Z,100220.66
2023-04-25T15:57:51.727Z,100220.06
2023-04-25T16:00:22.693Z,100231.53
2023-04-25T16:02:51.883Z,100221.44
2023-04-25T16:05:20.843Z,100224.22
2023-04-25T16:07:50.525Z,100220.00
2023-04-25T16:10:21.751Z,100220.34
2023-04-25T16:12:51.564Z,100217.44
2023-04-25T16:15:20.308Z,100214.00
2023-04-25T16:17:49.406Z,100216.13
2023-04-25T16:20:18.008Z,100209.09
2023-04-25T16:22:47.829Z,100213.84
2023-04-25T16:25:16.424Z,100212.19
2023-04-25T16:27:45.210Z,100206.84
2023-04-25T16:30:14.361Z,100202.81
2023-04-25T16:32:45.275Z,100200.53
2023-04-25T16:35:14.299Z,100187.53
2023-04-25T16:37:43.062Z,100191.31
2023-04-25T16:40:12.453Z,100192.00
2023-04-25T16:42:41.276Z,100182.19
2023-04-25T16:45:10.265Z,100180.50
2023-04-25T16:47:39.091Z,100186.41
2023-04-25T16:50:08.360Z,100186.16
2023-04-25T16:52:37.431Z,100193.59
2023-04-25T16:55:08.093Z,100190.94
2023-04-25T16:57:37.861Z,100190.38
2023-04-25T17:00:10.050Z,100185.63
2023-04-25T17:02:38.998Z,100198.34
2023-04-25T17:05:08.192Z,100204.38
2023-04-25T17:07:37.781Z,100203.25
2023-04-25T17:10:06.847Z,100212.22
2023-04-25T17:12:35.955Z,100211.66
2023-04-25T17:15:05.048Z,100215.16
2023-04-25T17:17:33.819Z,100209.44
2023-04-25T17:20:02.263Z,100215.31
2023-04-25T17:22:31.027Z,100213.88
2023-04-25T17:24:59.490Z,100203.81
2023-04-25T17:27:28.471Z,100224.25
2023-04-25T17:29:57.321Z,100217.81
2023-04-25T17:32:27.657Z,100217.28
2023-04-25T17:34:57.467Z,100221.88
2023-04-25T17:37:28.753Z,100229.28
2023-04-25T17:39:57.588Z,100224.06
2023-04-25T17:42:26.478Z,100230.94
2023-04-25T17:44:55.793Z,100223.41
2023-04-25T17:47:24.755Z,100229.00
2023-04-25T17:49:53.363Z,100223.81
2023-04-25T17:52:22.596Z,100226.91
2023-04-25T17:54:51.687Z,100228.19
2023-04-25T17:57:23.034Z,100226.50
2023-04-25T17:59:51.830Z,100237.84
2023-04-25T18:02:22.197Z,100237.41
2023-04-25T18:04:50.965Z,100246.34
2023-04-25T18:07:19.893Z,100249.69
2023-04-25T18:09:48.306Z,100253.06
2023-04-25T18:12:18.293Z,100248.78
2023-04-25T18:14:46.834Z,100248.50
2023-04-25T18:17:15.697Z,100249.59
2023-04-25T18:19:44.085Z,100256.44
2023-04-25T18:22:13.172Z,100261.91
2023-04-25T18:24:41.604Z,100256.00
2023-04-25T18:27:10.981Z,100259.91
2023-04-25T18:29:39.519Z,100267.47
2023-04-25T18:32:08.526Z,100269.84
2023-04-25T18:34:37.072Z,100267.88
2023-04-25T18:37:05.808Z,100277.25
2023-04-25T18:39:34.148Z,100289.56
2023-04-25T18:42:06.673Z,100293.94
2023-04-25T18:44:40.286Z,100302.91
2023-04-25T18:47:10.378Z,100305.88
2023-04-25T18:49:39.270Z,100308.38
2023-04-25T18:52:12.498Z,100311.88
2023-04-25T18:54:41.186Z,100319.03
2023-04-25T18:57:11.757Z,100317.22
2023-04-25T18:59:40.175Z,100317.22
2023-04-25T19:02:09.443Z,100325.91
2023-04-25T19:04:38.079Z,100323.09
2023-04-25T19:07:07.055Z,100332.63
2023-04-25T19:09:35.661Z,100339.59
2023-04-25T19:12:05.235Z,100345.81
2023-04-25T19:14:33.887Z,100351.81
2023-04-25T19:17:02.795Z,100359.69
2023-04-25T19:19:31.451Z,100373.00
2023-04-25T19:22:00.993Z,100365.16
2023-04-25T19:24:29.360Z,100373.00
2023-04-25T19:26:58.155Z,100377.19
2023-04-25T19:29:28.461Z,100390.66
2023-04-25T19:31:59.689Z,100390.66
2023-04-25T19:34:28.552Z,100386.31
2023-04-25T19:36:57.581Z,100397.81
2023-04-25T19:39:26.233Z,100401.19
2023-04-25T19:41:55.154Z,100394.31
2023-04-25T19:44:23.596Z,100403.00
2023-04-25T19:46:52.483Z,100406.50
2023-04-25T19:49:21.591Z,100402.00
2023-04-25T19:51:50.399Z,100412.66
2023-04-25T19:54:18.752Z,100408.34
2023-04-25T19:56:47.432Z,100408.34
2023-04-25T19:59:15.744Z,100407.47
2023-04-25T20:01:44.696Z,100411.97
2023-04-25T20:04:13.237Z,100410.00
2023-04-25T20:06:42.080Z,100402.13
2023-04-25T20:09:12.385Z,100404.66
2023-04-25T20:11:42.057Z,100404.66
2023-04-25T20:14:11.515Z,100406.38
2023-04-25T20:16:41.907Z,100417.03
2023-04-25T20:19:10.668Z,100412.81
2023-04-25T20:21:39.681Z,100410.84
2023-04-25T20:24:08.827Z,100407.47
2023-04-25T20:26:37.899Z,100413.50
2023-04-25T20:29:06.719Z,100418.13
2023-04-25T20:31:37.086Z,100417.28
2023-04-25T20:34:05.635Z,100416.47
2023-04-25T20:36:35.304Z,100412.28
2023-04-25T20:39:04.875Z,100416.59
2023-04-25T20:41:33.677Z,100414.94
2023-04-25T20:44:03.414Z,100409.59
2023-04-25T20:46:32.221Z,100417.72
2023-04-25T20:49:03.272Z,100422.19
2023-04-25T20:51:32.872Z,100421.38
2023-04-25T20:54:04.102Z,100419.53
2023-04-25T20:56:33.164Z,100425.88
2023-04-25T20:59:01.685Z,100425.88
2023-04-25T21:02:46.867Z,100418.69
2023-04-25T21:05:16.229Z,100417.03
2023-04-25T21:07:45.786Z,100425.88
2023-04-25T21:10:15.861Z,100422.38
2023-04-25T21:12:48.256Z,100414.66
2023-04-25T21:15:19.739Z,100414.50
2023-04-25T21:17:49.581Z,100413.81
2023-04-25T21:20:20.674Z,100411.00
2023-04-25T21:22:53.449Z,100408.47
2023-04-25T21:25:29.335Z,100411.84
2023-04-25T21:28:00.030Z,100407.47
2023-04-25T21:30:29.010Z,100411.00
2023-04-25T21:32:57.685Z,100406.66
2023-04-25T21:35:26.777Z,100411.16
2023-04-25T21:37:55.490Z,100411.16
2023-04-25T21:40:24.412Z,100412.81
2023-04-25T21:42:53.831Z,100400.50
2023-04-25T21:45:22.704Z,100412.97
2023-04-25T21:47:51.224Z,100415.66
2023-04-25T21:50:20.233Z,100420.09
2023-04-25T21:52:48.755Z,100428.09
2023-04-25T21:55:17.840Z,100429.78
2023-04-25T21:57:46.640Z,100424.59
2023-04-25T22:00:24.736Z,100428.25
2023-04-25T22:02:56.849Z,100429.22
2023-04-25T22:05:27.661Z,100424.59
2023-04-25T22:07:59.100Z,100423.78
2023-04-25T22:10:28.352Z,100418.44
2023-04-25T22:12:56.882Z,100422.06
2023-04-25T22:15:26.665Z,100415.09
2023-04-25T22:17:58.784Z,100421.09
2023-04-25T22:20:28.232Z,100416.75
2023-04-25T22:22:56.691Z,100415.09
2023-04-25T22:25:26.065Z,100421.25
2023-04-25T22:27:55.800Z,100414.38
2023-04-25T22:30:24.960Z,100416.88
2023-04-25T22:32:53.484Z,100415.09
2023-04-25T22:35:22.584Z,100413.38
2023-04-25T22:37:51.006Z,100408.19
2023-04-25T22:40:19.895Z,100409.88
2023-04-25T22:42:48.334Z,100415.22
2023-04-25T22:45:17.391Z,100419.53
2023-04-25T22:47:46.645Z,100420.53
2023-04-25T22:50:17.136Z,100421.50
2023-04-25T22:52:48.253Z,100427.84
2023-04-25T22:55:17.014Z,100425.19
2023-04-25T22:57:45.533Z,100420.69
2023-04-25T23:00:20.526Z,100417.19
2023-04-25T23:02:50.050Z,100415.34
2023-04-25T23:05:19.333Z,100418.00
2023-04-25T23:07:48.542Z,100418.84
2023-04-25T23:10:19.156Z,100419.00
2023-04-25T23:12:47.660Z,100419.00
2023-04-25T23:15:16.625Z,100419.84
2023-04-25T23:17:45.077Z,100416.34
2023-04-25T23:20:14.154Z,100416.50
2023-04-25T23:22:42.888Z,100430.63
2023-04-25T23:25:12.035Z,100436.97
2023-04-25T23:27:40.487Z,100440.47
2023-04-25T23:30:10.609Z,100440.31
2023-04-25T23:32:39.228Z,100437.09
2023-04-25T23:35:08.656Z,100436.09
2023-04-25T23:37:37.415Z,100432.59
2023-04-25T23:40:10.656Z,100440.72
2023-04-25T23:42:41.184Z,100436.25
2023-04-25T23:45:10.363Z,100433.59
2023-04-25T23:47:38.968Z,100434.44
2023-04-25T23:50:08.696Z,100440.59
2023-04-25T23:52:38.056Z,100430.94
2023-04-25T23:55:07.432Z,100431.06
2023-04-25T23:57:36.502Z,100428.28
